createdAt,value
2022-09-22T00:01:05.441Z,86.88
2022-09-22T00:03:43.118Z,85.91
2022-09-22T00:06:13.117Z,85.31
2022-09-22T00:08:42.403Z,85.89
2022-09-22T00:11:17.013Z,86.09
2022-09-22T00:13:52.088Z,85.92
2022-09-22T00:16:25.111Z,86.01
2022-09-22T00:18:51.613Z,87.00
2022-09-22T00:21:20.162Z,86.96
2022-09-22T00:23:47.198Z,85.93
2022-09-22T00:26:17.684Z,86.30
2022-09-22T00:28:46.005Z,86.86
2022-09-22T00:31:24.599Z,86.74
2022-09-22T00:33:52.956Z,86.33
2022-09-22T00:36:23.112Z,86.10
2022-09-22T00:38:51.488Z,85.96
2022-09-22T00:41:21.597Z,85.98
2022-09-22T00:43:50.356Z,85.96
2022-09-22T00:46:28.640Z,86.13
2022-09-22T00:49:03.044Z,85.71
2022-09-22T00:51:34.774Z,86.00
2022-09-22T00:54:05.755Z,86.21
2022-09-22T00:56:38.455Z,86.19
2022-09-22T00:59:09.264Z,85.38
2022-09-22T01:01:40.137Z,85.15
2022-09-22T01:04:07.852Z,85.90
2022-09-22T01:06:37.142Z,85.35
2022-09-22T01:09:03.682Z,85.58
2022-09-22T01:11:30.370Z,85.77
2022-09-22T01:14:26.292Z,84.95
2022-09-22T01:17:04.492Z,85.08
2022-09-22T01:20:12.696Z,85.18
2022-09-22T01:23:07.642Z,85.26
2022-09-22T01:26:00.205Z,85.01
2022-09-22T01:28:45.404Z,84.86
2022-09-22T01:31:25.542Z,84.65
2022-09-22T01:34:17.573Z,84.78
2022-09-22T01:36:56.070Z,85.22
2022-09-22T01:39:37.161Z,85.35
2022-09-22T01:42:11.368Z,84.65
2022-09-22T01:44:52.358Z,84.90
2022-09-22T01:47:26.276Z,85.45
2022-09-22T01:49:58.878Z,85.54
2022-09-22T01:52:29.085Z,85.40
2022-09-22T01:55:00.944Z,85.71
2022-09-22T01:57:43.727Z,85.26
2022-09-22T02:00:11.153Z,85.81
2022-09-22T02:03:06.686Z,84.97
2022-09-22T02:05:40.356Z,84.57
2022-09-22T02:08:11.738Z,84.88
2022-09-22T02:10:42.594Z,84.75
2022-09-22T02:13:09.024Z,84.79
2022-09-22T02:15:54.521Z,85.15
2022-09-22T02:18:27.560Z,85.24
2022-09-22T02:20:54.154Z,85.42
2022-09-22T02:23:20.610Z,85.57
2022-09-22T02:25:48.410Z,85.72
2022-09-22T02:28:18.074Z,85.69
2022-09-22T02:31:10.486Z,85.73
2022-09-22T02:33:38.406Z,85.74
2022-09-22T02:36:35.628Z,85.64
2022-09-22T02:39:10.021Z,85.60
2022-09-22T02:41:47.077Z,85.10
2022-09-22T02:44:21.351Z,85.02
2022-09-22T02:46:59.466Z,84.72
2022-09-22T02:49:27.833Z,84.50
2022-09-22T02:51:54.791Z,84.63
2022-09-22T02:54:22.551Z,84.51
2022-09-22T02:56:49.006Z,84.57
2022-09-22T02:59:15.442Z,85.09
2022-09-22T03:01:41.992Z,85.54
2022-09-22T03:04:08.572Z,85.44
2022-09-22T03:06:35.061Z,84.83
2022-09-22T03:09:01.525Z,84.65
2022-09-22T03:11:27.870Z,84.57
2022-09-22T03:13:54.545Z,85.39
2022-09-22T03:16:21.283Z,85.63
2022-09-22T03:18:47.757Z,85.23
2022-09-22T03:21:14.090Z,85.84
2022-09-22T03:23:40.469Z,85.12
2022-09-22T03:26:06.848Z,84.91
2022-09-22T03:28:33.249Z,84.78
2022-09-22T03:30:59.638Z,84.12
2022-09-22T03:33:26.080Z,84.69
2022-09-22T03:35:52.538Z,84.58
2022-09-22T03:38:18.919Z,84.42
2022-09-22T03:40:52.827Z,84.57
2022-09-22T03:43:19.954Z,85.01
2022-09-22T03:45:46.721Z,85.26
2022-09-22T03:48:13.380Z,85.92
2022-09-22T03:50:39.916Z,86.07
2022-09-22T03:53:06.283Z,85.77
2022-09-22T03:55:32.654Z,85.33
2022-09-22T03:57:59.074Z,84.92
2022-09-22T04:00:25.572Z,84.72
2022-09-22T04:02:51.998Z,85.24
2022-09-22T04:05:18.793Z,85.46
2022-09-22T04:07:45.198Z,85.22
2022-09-22T04:10:11.555Z,85.33
2022-09-22T04:12:37.969Z,85.42
2022-09-22T04:15:04.906Z,85.40
2022-09-22T04:17:31.249Z,85.35
2022-09-22T04:19:57.901Z,85.55
2022-09-22T04:22:24.316Z,85.27
2022-09-22T04:24:50.705Z,86.65
2022-09-22T04:27:21.080Z,86.80
2022-09-22T04:29:48.294Z,85.73
2022-09-22T04:32:15.240Z,86.96
2022-09-22T04:34:41.710Z,86.17
2022-09-22T04:37:08.159Z,85.64
2022-09-22T04:39:35.480Z,85.41
2022-09-22T04:42:02.362Z,85.50
2022-09-22T04:44:34.569Z,84.92
2022-09-22T04:47:01.422Z,85.40
2022-09-22T04:49:27.795Z,85.15
2022-09-22T04:51:54.192Z,85.17
2022-09-22T04:54:20.527Z,85.85
2022-09-22T04:56:46.876Z,85.23
2022-09-22T04:59:13.228Z,84.96
2022-09-22T05:01:39.684Z,84.96
2022-09-22T05:04:06.170Z,84.98
2022-09-22T05:06:32.513Z,84.71
2022-09-22T05:08:58.903Z,84.92
2022-09-22T05:11:25.399Z,85.30
2022-09-22T05:13:51.839Z,85.97
2022-09-22T05:16:18.399Z,86.13
2022-09-22T05:18:44.859Z,86.17
2022-09-22T05:21:11.276Z,86.90
2022-09-22T05:23:39.318Z,87.84
2022-09-22T05:26:06.647Z,89.36
2022-09-22T05:28:33.101Z,89.32
2022-09-22T05:30:59.571Z,90.13
2022-09-22T05:33:25.916Z,90.49
2022-09-22T05:35:52.374Z,90.21
2022-09-22T05:38:18.753Z,91.97
2022-09-22T05:40:47.333Z,93.12
2022-09-22T05:43:13.865Z,93.87
2022-09-22T05:45:40.294Z,94.14
2022-09-22T05:48:06.836Z,93.88
2022-09-22T05:50:33.242Z,94.71
2022-09-22T05:53:07.922Z,95.59
2022-09-22T05:55:35.103Z,95.34
2022-09-22T05:58:02.365Z,95.75
2022-09-22T06:00:29.900Z,95.88
2022-09-22T06:02:56.435Z,96.63
2022-09-22T06:05:23.375Z,96.98
2022-09-22T06:08:03.207Z,95.77
2022-09-22T06:10:32.355Z,95.48
2022-09-22T06:13:00.189Z,95.61
2022-09-22T06:15:27.702Z,95.65
2022-09-22T06:17:55.549Z,95.25
2022-09-22T06:20:22.212Z,95.37
2022-09-22T06:22:48.928Z,95.33
2022-09-22T06:25:15.869Z,95.67
2022-09-22T06:27:44.108Z,96.40
2022-09-22T06:30:11.739Z,96.84
2022-09-22T06:32:43.644Z,94.67
2022-09-22T06:35:10.069Z,95.10
2022-09-22T06:37:40.677Z,96.04
2022-09-22T06:40:08.486Z,96.87
2022-09-22T06:42:35.720Z,97.56
2022-09-22T06:45:04.446Z,96.21
2022-09-22T06:47:32.232Z,96.64
2022-09-22T06:49:58.808Z,97.24
2022-09-22T06:52:25.181Z,97.05
2022-09-22T06:54:54.035Z,96.85
2022-09-22T06:57:20.483Z,96.48
2022-09-22T06:59:48.106Z,95.81
2022-09-22T07:02:14.576Z,96.44
2022-09-22T07:04:41.013Z,97.51
2022-09-22T07:07:08.212Z,98.97
2022-09-22T07:09:34.633Z,100.00
2022-09-22T07:12:01.201Z,100.00
2022-09-22T07:14:28.150Z,100.00
2022-09-22T07:16:55.177Z,99.94
2022-09-22T07:19:21.611Z,98.76
2022-09-22T07:21:48.258Z,98.15
2022-09-22T07:24:14.872Z,98.98
2022-09-22T07:26:41.776Z,99.49
2022-09-22T07:29:13.146Z,100.00
2022-09-22T07:31:41.375Z,100.00
2022-09-22T07:34:07.761Z,100.00
2022-09-22T07:36:37.060Z,99.85
2022-09-22T07:39:10.137Z,100.00
2022-09-22T07:41:41.694Z,100.00
2022-09-22T07:44:31.394Z,100.00
2022-09-22T07:46:58.118Z,100.00
2022-09-22T07:49:24.583Z,100.00
2022-09-22T07:51:54.918Z,100.00
2022-09-22T07:54:22.198Z,100.00
2022-09-22T07:56:49.971Z,100.00
2022-09-22T07:59:16.660Z,100.00
2022-09-22T08:01:47.578Z,100.00
2022-09-22T08:04:16.984Z,100.00
2022-09-22T08:06:48.609Z,100.00
2022-09-22T08:09:15.575Z,100.00
2022-09-22T08:11:45.899Z,100.00
2022-09-22T08:14:12.754Z,100.00
2022-09-22T08:16:40.368Z,100.00
2022-09-22T08:19:14.773Z,100.00
2022-09-22T08:21:49.097Z,100.00
2022-09-22T08:24:21.237Z,100.00
2022-09-22T08:26:50.389Z,100.00
2022-09-22T08:29:16.798Z,100.00
2022-09-22T08:31:45.303Z,100.00
2022-09-22T08:34:14.039Z,100.00
2022-09-22T08:36:46.269Z,100.00
2022-09-22T08:39:13.232Z,100.00
2022-09-22T08:41:42.908Z,100.00
2022-09-22T08:44:12.127Z,100.00
2022-09-22T08:46:41.326Z,100.00
2022-09-22T08:49:46.869Z,100.00
2022-09-22T08:52:23.742Z,99.42
2022-09-22T08:54:50.125Z,98.11
2022-09-22T08:57:44.312Z,98.35
2022-09-22T09:00:17.015Z,98.10
2022-09-22T09:03:17.253Z,97.78
2022-09-22T09:06:13.480Z,96.79
2022-09-22T09:09:05.257Z,96.49
2022-09-22T09:12:01.002Z,95.89
2022-09-22T09:15:15.014Z,96.13
2022-09-22T09:17:45.911Z,95.39
2022-09-22T09:20:12.313Z,95.50
2022-09-22T09:22:45.148Z,95.22
2022-09-22T09:25:23.874Z,94.29
2022-09-22T09:27:55.509Z,94.80
2022-09-22T09:30:21.934Z,94.03
2022-09-22T09:33:04.540Z,92.44
2022-09-22T09:35:49.415Z,93.21
2022-09-22T09:38:17.773Z,92.68
2022-09-22T09:40:59.281Z,92.17
2022-09-22T09:43:27.864Z,90.63
2022-09-22T09:46:12.793Z,89.56
2022-09-22T09:48:51.540Z,88.60
2022-09-22T09:51:19.852Z,88.63
2022-09-22T09:53:49.544Z,87.79
2022-09-22T09:56:22.355Z,86.60
2022-09-22T09:59:22.490Z,88.43
2022-09-22T10:01:51.014Z,86.65
2022-09-22T10:04:37.404Z,84.26
2022-09-22T10:07:20.096Z,83.27
2022-09-22T10:09:49.465Z,84.21
2022-09-22T10:12:34.272Z,84.62
2022-09-22T10:15:01.566Z,83.25
2022-09-22T10:17:33.707Z,82.93
2022-09-22T10:20:16.988Z,81.29
2022-09-22T10:22:44.070Z,80.40
2022-09-22T10:25:19.446Z,79.68
2022-09-22T10:28:00.578Z,79.78
2022-09-22T10:30:27.373Z,79.05
2022-09-22T10:33:15.781Z,77.32
2022-09-22T10:35:55.746Z,77.54
2022-09-22T10:38:29.247Z,76.86
2022-09-22T10:41:02.572Z,77.52
2022-09-22T10:43:53.720Z,75.97
2022-09-22T10:46:39.001Z,75.74
2022-09-22T10:49:15.432Z,75.18
2022-09-22T10:51:57.245Z,77.87
2022-09-22T10:54:26.387Z,76.75
2022-09-22T10:56:57.085Z,78.59
2022-09-22T10:59:38.728Z,75.72
2022-09-22T11:02:51.155Z,72.72
2022-09-22T11:06:02.152Z,75.16
2022-09-22T11:08:59.470Z,73.88
2022-09-22T11:11:59.457Z,69.83
2022-09-22T11:15:03.721Z,68.50
2022-09-22T11:17:45.492Z,68.44
2022-09-22T11:20:39.110Z,70.84
2022-09-22T11:23:48.286Z,66.89
2022-09-22T11:26:36.708Z,67.85
2022-09-22T11:29:09.067Z,70.14
2022-09-22T11:32:17.447Z,68.61
2022-09-22T11:35:12.805Z,68.61
2022-09-22T11:37:55.684Z,67.29
2022-09-22T11:40:53.568Z,67.47
2022-09-22T11:43:48.070Z,68.14
2022-09-22T11:46:28.652Z,66.30
2022-09-22T11:49:01.188Z,66.00
2022-09-22T11:51:33.994Z,63.97
2022-09-22T11:54:23.925Z,64.63
2022-09-22T11:56:54.769Z,62.49
2022-09-22T11:59:31.857Z,60.85
2022-09-22T12:02:04.648Z,58.58
2022-09-22T12:04:39.796Z,60.71
2022-09-22T12:07:13.808Z,60.52
2022-09-22T12:09:51.119Z,59.21
2022-09-22T12:12:22.156Z,59.64
2022-09-22T12:15:00.022Z,59.53
2022-09-22T12:17:40.789Z,59.91
2022-09-22T12:20:23.289Z,60.51
2022-09-22T12:23:03.402Z,57.23
2022-09-22T12:26:07.996Z,54.37
2022-09-22T12:28:43.189Z,58.22
2022-09-22T12:31:18.759Z,54.08
2022-09-22T12:33:47.450Z,53.17
2022-09-22T12:36:15.328Z,59.08
2022-09-22T12:38:42.109Z,52.29
2022-09-22T12:41:08.625Z,52.36
2022-09-22T12:43:36.542Z,53.21
2022-09-22T12:46:19.820Z,55.06
2022-09-22T12:48:46.668Z,49.85
2022-09-22T12:51:17.222Z,48.82
2022-09-22T12:53:44.077Z,46.15
2022-09-22T12:56:48.845Z,44.98
2022-09-22T12:59:43.146Z,43.16
2022-09-22T13:02:15.808Z,42.08
2022-09-22T13:05:03.428Z,43.76
2022-09-22T13:07:43.480Z,42.62
2022-09-22T13:10:22.404Z,40.58
2022-09-22T13:13:01.005Z,43.30
2022-09-22T13:15:29.051Z,44.32
2022-09-22T13:17:55.421Z,45.26
2022-09-22T13:20:33.517Z,45.55
2022-09-22T13:23:12.897Z,46.55
2022-09-22T13:25:41.002Z,45.11
2022-09-22T13:28:18.280Z,46.07
2022-09-22T13:30:46.266Z,47.62
2022-09-22T13:33:25.458Z,47.63
2022-09-22T13:36:03.332Z,48.05
2022-09-22T13:38:32.485Z,48.56
2022-09-22T13:40:58.928Z,49.67
2022-09-22T13:43:30.933Z,49.87
2022-09-22T13:45:59.933Z,47.66
2022-09-22T13:48:29.880Z,48.60
2022-09-22T13:51:01.642Z,50.88
2022-09-22T13:53:28.113Z,50.25
2022-09-22T13:55:54.760Z,51.61
2022-09-22T13:58:30.532Z,50.96
2022-09-22T14:01:15.567Z,51.13
2022-09-22T14:03:42.951Z,50.33
2022-09-22T14:06:14.009Z,50.80
2022-09-22T14:08:42.601Z,51.07
2022-09-22T14:11:15.590Z,50.29
2022-09-22T14:13:55.867Z,51.71
2022-09-22T14:16:34.532Z,52.01
2022-09-22T14:19:07.058Z,51.24
2022-09-22T14:21:47.596Z,51.02
2022-09-22T14:24:14.138Z,51.53
2022-09-22T14:26:46.753Z,50.62
2022-09-22T14:29:29.095Z,51.15
2022-09-22T14:32:33.821Z,51.64
2022-09-22T14:35:04.839Z,51.73
2022-09-22T14:37:36.419Z,52.11
2022-09-22T14:40:07.218Z,52.58
2022-09-22T14:42:34.253Z,52.47
2022-09-22T14:45:09.493Z,52.79
2022-09-22T14:47:40.436Z,51.23
2022-09-22T14:50:38.035Z,52.53
2022-09-22T14:53:12.066Z,52.27
2022-09-22T14:55:42.886Z,52.19
2022-09-22T14:58:18.355Z,51.87
2022-09-22T15:01:20.380Z,52.34
2022-09-22T15:04:00.709Z,52.07
2022-09-22T15:06:39.347Z,51.75
2022-09-22T15:09:07.524Z,51.45
2022-09-22T15:11:51.758Z,51.44
2022-09-22T15:14:43.923Z,51.53
2022-09-22T15:17:57.890Z,51.94
2022-09-22T15:20:34.858Z,52.93
2022-09-22T15:23:02.303Z,53.40
2022-09-22T15:25:29.175Z,54.10
2022-09-22T15:27:55.613Z,54.00
2022-09-22T15:30:22.328Z,54.44
2022-09-22T15:32:49.516Z,53.90
2022-09-22T15:35:17.621Z,53.46
2022-09-22T15:37:49.545Z,53.61
2022-09-22T15:40:19.288Z,53.65
2022-09-22T15:43:02.518Z,53.51
2022-09-22T15:45:32.837Z,54.53
2022-09-22T15:47:59.209Z,54.74
2022-09-22T15:50:29.343Z,54.10
2022-09-22T15:52:56.347Z,54.05
2022-09-22T15:55:24.193Z,54.02
2022-09-22T15:57:55.180Z,54.57
2022-09-22T16:00:28.382Z,54.17
2022-09-22T16:02:54.822Z,53.01
2022-09-22T16:05:21.606Z,53.08
2022-09-22T16:07:51.570Z,53.25
2022-09-22T16:10:23.396Z,53.55
2022-09-22T16:12:50.446Z,53.34
2022-09-22T16:15:17.462Z,53.47
2022-09-22T16:17:45.702Z,53.73
2022-09-22T16:20:14.420Z,53.95
2022-09-22T16:22:42.860Z,54.28
2022-09-22T16:25:11.222Z,55.01
2022-09-22T16:27:38.238Z,54.84
2022-09-22T16:30:05.452Z,55.01
2022-09-22T16:32:36.074Z,56.00
2022-09-22T16:35:03.624Z,55.82
2022-09-22T16:37:30.192Z,56.21
2022-09-22T16:39:56.594Z,56.21
2022-09-22T16:42:23.831Z,56.55
2022-09-22T16:44:50.643Z,56.67
2022-09-22T16:47:22.892Z,56.17
2022-09-22T16:49:51.109Z,57.52
2022-09-22T16:52:18.990Z,60.44
2022-09-22T16:54:46.115Z,62.65
2022-09-22T16:57:12.800Z,65.15
2022-09-22T16:59:39.264Z,67.54
2022-09-22T17:02:05.878Z,68.23
2022-09-22T17:04:32.757Z,68.98
2022-09-22T17:06:59.161Z,69.70
2022-09-22T17:09:25.533Z,70.47
2022-09-22T17:11:52.554Z,71.36
2022-09-22T17:14:21.381Z,71.73
2022-09-22T17:16:53.413Z,72.15
2022-09-22T17:19:22.097Z,73.04
2022-09-22T17:21:51.875Z,72.82
2022-09-22T17:24:19.453Z,73.00
2022-09-22T17:26:48.921Z,73.04
2022-09-22T17:29:17.460Z,73.14
2022-09-22T17:31:47.238Z,73.77
2022-09-22T17:34:13.925Z,73.73
2022-09-22T17:36:40.737Z,74.18
2022-09-22T17:39:10.230Z,73.82
2022-09-22T17:41:45.232Z,74.50
2022-09-22T17:44:11.660Z,74.30
2022-09-22T17:46:58.072Z,74.86
2022-09-22T17:49:43.023Z,74.75
2022-09-22T17:52:29.431Z,75.06
2022-09-22T17:55:06.569Z,75.86
2022-09-22T17:57:35.035Z,75.55
2022-09-22T18:00:01.595Z,75.75
2022-09-22T18:02:32.142Z,76.41
2022-09-22T18:04:58.786Z,76.51
2022-09-22T18:07:26.640Z,76.70
2022-09-22T18:09:55.334Z,76.21
2022-09-22T18:12:24.636Z,76.94
2022-09-22T18:14:53.364Z,76.66
2022-09-22T18:17:22.646Z,76.65
2022-09-22T18:19:49.114Z,76.91
2022-09-22T18:22:21.191Z,77.05
2022-09-22T18:24:51.496Z,76.93
2022-09-22T18:27:19.456Z,76.56
2022-09-22T18:29:53.153Z,76.32
2022-09-22T18:32:20.270Z,76.80
2022-09-22T18:34:47.899Z,77.53
2022-09-22T18:37:15.653Z,77.37
2022-09-22T18:39:44.634Z,77.53
2022-09-22T18:42:14.932Z,77.36
2022-09-22T18:44:41.640Z,77.46
2022-09-22T18:47:12.964Z,77.40
2022-09-22T18:49:40.558Z,77.62
2022-09-22T18:52:07.894Z,78.09
2022-09-22T18:54:35.890Z,78.46
2022-09-22T18:57:05.253Z,78.30
2022-09-22T18:59:31.638Z,78.36
2022-09-22T19:01:58.891Z,78.80
2022-09-22T19:04:26.821Z,78.99
2022-09-22T19:07:13.371Z,78.28
2022-09-22T19:09:40.057Z,78.78
2022-09-22T19:12:08.898Z,78.87
2022-09-22T19:14:38.141Z,79.14
2022-09-22T19:17:12.121Z,78.81
2022-09-22T19:19:42.278Z,79.03
2022-09-22T19:22:12.289Z,79.30
2022-09-22T19:24:40.298Z,79.68
2022-09-22T19:27:09.093Z,79.15
2022-09-22T19:29:35.629Z,79.25
2022-09-22T19:32:02.919Z,79.77
2022-09-22T19:34:29.824Z,79.58
2022-09-22T19:36:58.113Z,80.22
2022-09-22T19:39:25.128Z,79.17
2022-09-22T19:41:52.910Z,79.00
2022-09-22T19:44:21.078Z,79.45
2022-09-22T19:46:47.912Z,80.01
2022-09-22T19:49:15.511Z,80.05
2022-09-22T19:51:44.832Z,80.36
2022-09-22T19:54:11.828Z,79.91
2022-09-22T19:56:38.284Z,80.05
2022-09-22T19:59:08.557Z,80.55
2022-09-22T20:01:41.423Z,80.31
2022-09-22T20:04:17.910Z,80.34
2022-09-22T20:06:45.509Z,79.79
2022-09-22T20:09:12.176Z,80.54
2022-09-22T20:11:44.483Z,80.66
2022-09-22T20:14:22.050Z,80.85
2022-09-22T20:16:52.607Z,80.95
2022-09-22T20:19:20.396Z,80.73
2022-09-22T20:21:47.854Z,81.10
2022-09-22T20:24:16.749Z,80.47
2022-09-22T20:26:44.937Z,80.40
2022-09-22T20:29:13.098Z,80.55
2022-09-22T20:31:40.396Z,80.51
2022-09-22T20:34:07.493Z,80.83
2022-09-22T20:36:37.153Z,80.96
2022-09-22T20:39:04.656Z,80.59
2022-09-22T20:41:32.583Z,81.01
2022-09-22T20:43:59.201Z,80.26
2022-09-22T20:46:25.703Z,80.40
2022-09-22T20:48:55.192Z,81.12
2022-09-22T20:51:22.197Z,81.08
2022-09-22T20:53:48.660Z,80.71
2022-09-22T20:56:15.208Z,80.83
2022-09-22T20:58:43.884Z,80.58
2022-09-22T21:01:12.603Z,80.55
2022-09-22T21:03:39.554Z,80.42
2022-09-22T21:06:09.469Z,80.85
2022-09-22T21:08:59.104Z,81.18
2022-09-22T21:11:26.446Z,81.05
2022-09-22T21:13:55.547Z,80.95
2022-09-22T21:16:22.623Z,81.09
2022-09-22T21:18:51.571Z,81.38
2022-09-22T21:21:19.692Z,81.28
2022-09-22T21:23:48.275Z,80.91
2022-09-22T21:26:16.299Z,81.42
2022-09-22T21:28:43.259Z,81.07
2022-09-22T21:31:10.502Z,81.50
2022-09-22T21:33:37.694Z,81.54
2022-09-22T21:36:10.216Z,81.07
2022-09-22T21:38:37.045Z,80.98
2022-09-22T21:41:05.878Z,81.56
2022-09-22T21:43:32.952Z,81.32
2022-09-22T21:46:05.545Z,81.37
2022-09-22T21:48:33.479Z,81.07
2022-09-22T21:51:02.303Z,81.28
2022-09-22T21:53:29.770Z,81.23
2022-09-22T21:55:56.782Z,80.97
2022-09-22T21:58:23.269Z,81.01
2022-09-22T22:00:51.973Z,80.90
2022-09-22T22:03:30.849Z,81.71
2022-09-22T22:06:06.612Z,82.16
2022-09-22T22:08:40.953Z,81.96
2022-09-22T22:11:16.046Z,81.83
2022-09-22T22:13:45.123Z,81.98
2022-09-22T22:16:13.250Z,82.04
2022-09-22T22:18:41.148Z,81.56
2022-09-22T22:21:19.160Z,81.90
2022-09-22T22:23:50.153Z,81.63
2022-09-22T22:26:19.941Z,81.19
2022-09-22T22:28:48.327Z,81.84
2022-09-22T22:31:17.643Z,82.24
2022-09-22T22:33:44.595Z,82.19
2022-09-22T22:36:14.477Z,82.04
2022-09-22T22:38:41.797Z,81.69
2022-09-22T22:41:10.853Z,81.51
2022-09-22T22:43:38.301Z,81.59
2022-09-22T22:46:06.336Z,81.45
2022-09-22T22:48:33.089Z,81.73
2022-09-22T22:50:59.543Z,81.78
2022-09-22T22:53:26.524Z,81.40
2022-09-22T22:56:01.057Z,81.13
2022-09-22T22:58:31.096Z,81.22
2022-09-22T23:01:09.767Z,81.53
2022-09-22T23:03:41.040Z,82.28
2022-09-22T23:06:07.976Z,82.21
2022-09-22T23:08:35.712Z,82.06
2022-09-22T23:11:10.261Z,82.15
2022-09-22T23:13:38.007Z,81.69
2022-09-22T23:16:10.317Z,81.94
2022-09-22T23:18:39.020Z,81.56
2022-09-22T23:21:06.567Z,82.35
2022-09-22T23:23:34.118Z,81.89
2022-09-22T23:26:02.365Z,82.63
2022-09-22T23:28:30.906Z,82.34
2022-09-22T23:31:06.953Z,82.01
2022-09-22T23:33:33.370Z,82.34
2022-09-22T23:36:00.966Z,82.20
2022-09-22T23:38:29.710Z,81.87
2022-09-22T23:40:58.366Z,82.54
2022-09-22T23:43:26.167Z,82.14
2022-09-22T23:45:53.181Z,82.50
2022-09-22T23:48:21.915Z,82.40
2022-09-22T23:50:50.497Z,82.27
2022-09-22T23:53:18.798Z,82.43
2022-09-22T23:55:45.478Z,81.85
2022-09-22T23:58:14.299Z,81.48
